Time,TemperatureF,DewpointF,PressureIn,WindDirection,WindDirectionDegrees,WindSpeedMPH,WindSpeedGustMPH,Humidity,HourlyPrecipIn,Conditions,Clouds,dailyrainin,SoftwareType,DateUTC
2017-11-18 00:14:00,44.6,39.0,30.16,WNW,291,0.0,0.0,81,0.00,,,0.00,weatherlink.com 1.10,2017-11-18 08:14:00,
2017-11-18 00:29:00,44.2,39.0,30.16,WNW,291,0.0,0.0,82,0.00,,,0.00,weatherlink.com 1.10,2017-11-18 08:29:00,
2017-11-18 00:44:00,44.0,39.0,30.16,WNW,291,0.0,0.0,83,0.00,,,0.00,weatherlink.com 1.10,2017-11-18 08:44:00,
2017-11-18 00:59:00,43.7,39.0,30.15,WNW,291,0.0,2.0,83,0.00,,,0.00,weatherlink.com 1.10,2017-11-18 08:59:00,
2017-11-18 01:14:00,44.0,39.0,30.15,WNW,291,0.0,1.0,83,0.00,,,0.00,weatherlink.com 1.10,2017-11-18 09:14:00,
2017-11-18 01:29:00,44.7,39.0,30.15,WNW,291,0.0,0.0,80,0.00,,,0.00,weatherlink.com 1.10,2017-11-18 09:29:00,
2017-11-18 01:44:00,44.9,39.0,30.15,WNW,291,0.0,0.0,79,0.00,,,0.00,weatherlink.com 1.10,2017-11-18 09:44:00,
2017-11-18 01:59:00,44.3,39.0,30.15,WNW,291,0.0,0.0,81,0.00,,,0.00,weatherlink.com 1.10,2017-11-18 09:59:00,
2017-11-18 02:14:00,43.6,38.0,30.15,WNW,291,0.0,0.0,81,0.00,,,0.00,weatherlink.com 1.10,2017-11-18 10:14:00,
2017-11-18 02:29:00,43.1,38.0,30.16,WNW,291,0.0,0.0,81,0.00,,,0.00,weatherlink.com 1.10,2017-11-18 10:29:00,
2017-11-18 02:45:00,42.7,38.0,30.16,WNW,291,0.0,1.0,83,0.00,,,0.00,weatherlink.com 1.10,2017-11-18 10:45:00,
2017-11-18 02:59:00,42.4,38.0,30.16,WNW,291,0.0,0.0,83,0.00,,,0.00,weatherlink.com 1.10,2017-11-18 10:59:00,
2017-11-18 03:14:00,42.5,38.0,30.16,WNW,291,0.0,0.0,83,0.00,,,0.00,weatherlink.com 1.10,2017-11-18 11:14:00,
2017-11-18 03:29:00,42.7,38.0,30.15,WNW,291,0.0,0.0,82,0.00,,,0.00,weatherlink.com 1.10,2017-11-18 11:29:00,
2017-11-18 03:45:00,42.8,38.0,30.15,WNW,291,0.0,0.0,82,0.00,,,0.00,weatherlink.com 1.10,2017-11-18 11:45:00,
2017-11-18 03:59:00,42.8,37.0,30.16,WNW,291,0.0,0.0,81,0.00,,,0.00,weatherlink.com 1.10,2017-11-18 11:59:00,
2017-11-18 04:14:00,42.5,37.0,30.15,WNW,291,0.0,0.0,82,0.00,,,0.00,weatherlink.com 1.10,2017-11-18 12:14:00,
2017-11-18 04:30:00,42.1,37.0,30.16,WNW,291,0.0,0.0,83,0.00,,,0.00,weatherlink.com 1.10,2017-11-18 12:30:00,
2017-11-18 04:44:00,42.4,37.0,30.16,WNW,291,0.0,0.0,82,0.00,,,0.00,weatherlink.com 1.10,2017-11-18 12:44:00,
2017-11-18 04:59:00,42.2,37.0,30.16,WNW,291,0.0,0.0,83,0.00,,,0.00,weatherlink.com 1.10,2017-11-18 12:59:00,
2017-11-18 05:14:00,42.0,37.0,30.16,WNW,291,0.0,0.0,83,0.00,,,0.00,weatherlink.com 1.10,2017-11-18 13:14:00,
2017-11-18 05:29:00,42.0,37.0,30.16,WNW,291,0.0,0.0,83,0.00,,,0.00,weatherlink.com 1.10,2017-11-18 13:29:00,
2017-11-18 05:44:00,41.9,37.0,30.16,WNW,291,0.0,0.0,83,0.00,,,0.00,weatherlink.com 1.10,2017-11-18 13:44:00,
2017-11-18 05:59:00,42.2,37.0,30.15,WNW,291,0.0,0.0,82,0.00,,,0.00,weatherlink.com 1.10,2017-11-18 13:59:00,
2017-11-18 06:14:00,42.3,38.0,30.15,WNW,291,0.0,0.0,83,0.00,,,0.00,weatherlink.com 1.10,2017-11-18 14:14:00,
2017-11-18 06:29:00,42.7,37.0,30.16,WNW,291,0.0,0.0,81,0.00,,,0.00,weatherlink.com 1.10,2017-11-18 14:29:00,
2017-11-18 06:44:00,42.7,37.0,30.16,WNW,291,0.0,0.0,81,0.00,,,0.00,weatherlink.com 1.10,2017-11-18 14:44:00,
2017-11-18 07:00:00,42.4,37.0,30.17,WNW,291,0.0,0.0,82,0.00,,,0.00,weatherlink.com 1.10,2017-11-18 15:00:00,
2017-11-18 07:14:00,42.4,38.0,30.17,WNW,291,0.0,0.0,83,0.00,,,0.00,weatherlink.com 1.10,2017-11-18 15:14:00,
2017-11-18 07:29:00,43.3,39.0,30.18,WNW,291,0.0,0.0,83,0.00,,,0.00,weatherlink.com 1.10,2017-11-18 15:29:00,
2017-11-18 07:45:00,45.4,39.0,30.19,WNW,291,0.0,0.0,79,0.00,,,0.00,weatherlink.com 1.10,2017-11-18 15:45:00,
2017-11-18 07:59:00,46.8,40.0,30.20,WNW,291,0.0,0.0,77,0.00,,,0.00,weatherlink.com 1.10,2017-11-18 15:59:00,
2017-11-18 08:15:00,47.9,40.0,30.20,WNW,291,0.0,0.0,75,0.00,,,0.00,weatherlink.com 1.10,2017-11-18 16:15:00,
2017-11-18 08:30:00,49.3,41.0,30.19,WNW,291,0.0,0.0,74,0.00,,,0.00,weatherlink.com 1.10,2017-11-18 16:30:00,
2017-11-18 08:45:00,50.5,41.0,30.20,WNW,291,0.0,0.0,71,0.00,,,0.00,weatherlink.com 1.10,2017-11-18 16:45:00,
2017-11-18 09:00:00,51.9,41.0,30.20,WNW,291,0.0,0.0,67,0.00,,,0.00,weatherlink.com 1.10,2017-11-18 17:00:00,
2017-11-18 09:15:00,53.1,42.0,30.19,WNW,291,0.0,0.0,66,0.00,,,0.00,weatherlink.com 1.10,2017-11-18 17:15:00,
2017-11-18 09:30:00,53.7,41.0,30.19,WNW,291,0.0,0.0,63,0.00,,,0.00,weatherlink.com 1.10,2017-11-18 17:30:00,
2017-11-18 09:45:00,54.3,40.0,30.19,WNW,291,0.0,0.0,58,0.00,,,0.00,weatherlink.com 1.10,2017-11-18 17:45:00,
2017-11-18 10:00:00,55.0,40.0,30.19,WNW,291,0.0,0.0,58,0.00,,,0.00,weatherlink.com 1.10,2017-11-18 18:00:00,
2017-11-18 10:15:00,55.7,39.0,30.19,WNW,291,0.0,0.0,54,0.00,,,0.00,weatherlink.com 1.10,2017-11-18 18:15:00,
2017-11-18 10:30:00,56.7,40.0,30.18,WNW,291,0.0,0.0,54,0.00,,,0.00,weatherlink.com 1.10,2017-11-18 18:30:00,
2017-11-18 10:45:00,56.8,38.0,30.18,WNW,291,0.0,0.0,50,0.00,,,0.00,weatherlink.com 1.10,2017-11-18 18:45:00,
2017-11-18 11:00:00,57.8,40.0,30.18,WNW,291,0.0,0.0,52,0.00,,,0.00,weatherlink.com 1.10,2017-11-18 19:00:00,
2017-11-18 11:16:00,58.7,42.0,30.18,WNW,291,0.0,0.0,55,0.00,,,0.00,weatherlink.com 1.10,2017-11-18 19:16:00,
2017-11-18 11:31:00,58.8,43.0,30.17,WNW,291,0.0,3.0,56,0.00,,,0.00,weatherlink.com 1.10,2017-11-18 19:31:00,
2017-11-18 11:45:00,58.9,42.0,30.16,WNW,303,0.0,3.0,53,0.00,,,0.00,weatherlink.com 1.10,2017-11-18 19:45:00,
2017-11-18 12:00:00,59.5,42.0,30.15,NW,305,1.0,4.0,52,0.00,,,0.00,weatherlink.com 1.10,2017-11-18 20:00:00,
2017-11-18 12:15:00,59.9,42.0,30.14,NW,306,2.0,3.0,52,0.00,,,0.00,weatherlink.com 1.10,2017-11-18 20:15:00,
2017-11-18 12:31:00,60.3,43.0,30.14,NW,308,1.0,5.0,53,0.00,,,0.00,weatherlink.com 1.10,2017-11-18 20:31:00,
2017-11-18 12:45:00,60.9,42.0,30.12,NW,307,1.0,3.0,50,0.00,,,0.00,weatherlink.com 1.10,2017-11-18 20:45:00,
2017-11-18 13:01:00,61.1,43.0,30.12,NW,312,1.0,4.0,52,0.00,,,0.00,weatherlink.com 1.10,2017-11-18 21:01:00,
2017-11-18 13:15:00,61.2,43.0,30.11,NW,312,0.0,4.0,52,0.00,,,0.00,weatherlink.com 1.10,2017-11-18 21:15:00,
2017-11-18 13:31:00,61.5,43.0,30.11,NW,314,0.0,4.0,52,0.00,,,0.00,weatherlink.com 1.10,2017-11-18 21:31:00,
2017-11-18 13:46:00,61.7,44.0,30.11,NW,314,0.0,3.0,53,0.00,,,0.00,weatherlink.com 1.10,2017-11-18 21:46:00,
2017-11-18 14:01:00,61.7,44.0,30.11,NW,314,0.0,3.0,52,0.00,,,0.00,weatherlink.com 1.10,2017-11-18 22:01:00,
2017-11-18 14:16:00,61.4,44.0,30.11,NW,314,2.0,4.0,53,0.00,,,0.00,weatherlink.com 1.10,2017-11-18 22:16:00,
2017-11-18 14:31:00,60.8,43.0,30.10,NW,314,4.0,5.0,53,0.00,,,0.00,weatherlink.com 1.10,2017-11-18 22:31:00,
2017-11-18 14:46:00,60.2,43.0,30.09,NW,313,0.0,3.0,54,0.00,,,0.00,weatherlink.com 1.10,2017-11-18 22:46:00,
2017-11-18 15:01:00,59.9,43.0,30.09,NW,313,0.0,4.0,54,0.00,,,0.00,weatherlink.com 1.10,2017-11-18 23:01:00,
2017-11-18 15:16:00,59.6,43.0,30.09,NW,313,1.0,1.0,55,0.00,,,0.00,weatherlink.com 1.10,2017-11-18 23:16:00,
2017-11-18 15:31:00,59.4,43.0,30.09,NW,315,0.0,3.0,55,0.00,,,0.00,weatherlink.com 1.10,2017-11-18 23:31:00,
2017-11-18 15:47:00,59.2,43.0,30.09,NW,316,0.0,5.0,56,0.00,,,0.00,weatherlink.com 1.10,2017-11-18 23:47:00,
2017-11-18 16:01:00,59.0,44.0,30.09,NW,316,0.0,3.0,57,0.00,,,0.00,weatherlink.com 1.10,2017-11-19 00:01:00,
2017-11-18 16:16:00,58.7,44.0,30.09,NW,317,0.0,4.0,58,0.00,,,0.00,weatherlink.com 1.10,2017-11-19 00:16:00,
2017-11-18 16:31:00,57.9,43.0,30.09,WNW,291,0.0,7.0,57,0.00,,,0.00,weatherlink.com 1.10,2017-11-19 00:31:00,
2017-11-18 16:46:00,56.9,43.0,30.09,WNW,291,3.0,3.0,60,0.00,,,0.00,weatherlink.com 1.10,2017-11-19 00:46:00,
2017-11-18 17:01:00,56.0,43.0,30.09,WNW,291,0.0,2.0,61,0.00,,,0.00,weatherlink.com 1.10,2017-11-19 01:01:00,
2017-11-18 17:16:00,55.4,42.0,30.09,WNW,291,0.0,1.0,62,0.00,,,0.00,weatherlink.com 1.10,2017-11-19 01:16:00,
2017-11-18 17:31:00,54.9,43.0,30.09,WNW,291,0.0,0.0,64,0.00,,,0.00,weatherlink.com 1.10,2017-11-19 01:31:00,
2017-11-18 17:46:00,53.8,43.0,30.09,WNW,291,0.0,0.0,66,0.00,,,0.00,weatherlink.com 1.10,2017-11-19 01:46:00,
2017-11-18 18:01:00,53.0,43.0,30.09,WNW,291,0.0,0.0,68,0.00,,,0.00,weatherlink.com 1.10,2017-11-19 02:01:00,
2017-11-18 18:16:00,52.2,42.0,30.10,WNW,291,0.0,0.0,69,0.00,,,0.00,weatherlink.com 1.10,2017-11-19 02:16:00,
2017-11-18 18:31:00,52.0,42.0,30.10,WNW,291,0.0,0.0,69,0.00,,,0.00,weatherlink.com 1.10,2017-11-19 02:31:00,
2017-11-18 18:46:00,51.9,42.0,30.10,WNW,291,0.0,0.0,68,0.00,,,0.00,weatherlink.com 1.10,2017-11-19 02:46:00,
2017-11-18 19:01:00,52.3,42.0,30.11,WNW,291,0.0,0.0,67,0.00,,,0.00,weatherlink.com 1.10,2017-11-19 03:01:00,
2017-11-18 19:23:00,51.4,42.0,30.11,WNW,291,0.0,0.0,70,0.00,,,0.00,weatherlink.com 1.10,2017-11-19 03:23:00,
2017-11-18 19:36:00,50.5,41.0,30.11,WNW,291,0.0,0.0,71,0.00,,,0.00,weatherlink.com 1.10,2017-11-19 03:36:00,
2017-11-18 19:46:00,49.7,42.0,30.11,WNW,291,0.0,0.0,74,0.00,,,0.00,weatherlink.com 1.10,2017-11-19 03:46:00,
2017-11-18 20:01:00,49.5,42.0,30.12,WNW,291,0.0,0.0,75,0.00,,,0.00,weatherlink.com 1.10,2017-11-19 04:01:00,
2017-11-18 20:16:00,49.1,41.0,30.12,WNW,291,0.0,0.0,74,0.00,,,0.00,weatherlink.com 1.10,2017-11-19 04:16:00,
2017-11-18 21:01:00,48.4,42.0,30.12,WNW,291,0.0,0.0,78,0.00,,,0.00,weatherlink.com 1.10,2017-11-19 05:01:00,
2017-11-18 21:31:00,48.2,42.0,30.12,WNW,291,0.0,2.0,79,0.00,,,0.00,weatherlink.com 1.10,2017-11-19 05:31:00,